SYI weather

Bomar Field Shelbyville Municipal Airport
Shelbyville, Tennessee, United States

Public forecast

Using degrees Fahrenheit for public forecast. Weather courtesy of forecast.io.

METAR (pilot weather report)

Retrieved 2019/08/24 16:35 UTC (23 minutes ago):

KSYI 241635Z AUTO 33008KT 10SM OVC009 24/22 A3008 RMK A01

TAF (pilot weather forecast)

Closest forecast is Smyrna Airport, 27.2 nm (50.4 km) N. Retrieved 2019/08/24 12:39 UTC (4 hours ago):

TAF KMQY 241135Z 2412/2512 04006KT P6SM OVC008 FM241400 03006KT P6SM OVC025 FM241800 02005KT P6SM BKN050 FM251000 14003KT P6SM VCTS BKN050CB BKN250